Date,TemperatureHighF,TemperatureAvgF,TemperatureLowF,DewpointHighF,DewpointAvgF,DewpointLowF,HumidityHigh,HumidityAvg,HumidityLow,PressureMaxIn,PressureMinIn,WindSpeedMaxMPH,WindSpeedAvgMPH,GustSpeedMaxMPH,PrecipitationSumIn
2013-1-1,41.8,38.1,34.4,38.5,33.7,28.8,92,84,79,30.28,30.01,12,4,15,0.01
2013-1-2,39.1,33.1,28.9,30.1,27.1,24.1,83,79,68,30.34,30.23,10,2,11,0.00
2013-1-3,47.2,34.9,25.1,33.2,27.2,20.9,84,75,52,30.46,30.32,11,1,16,0.01
2013-1-4,47.0,40.5,34.5,32.9,30.6,28.0,81,68,53,30.51,30.33,5,0,7,0.00
2013-1-5,51.8,42.3,34.1,38.6,34.8,28.9,84,75,58,30.33,30.17,13,2,16,0.00
2013-1-6,53.5,38.5,28.4,32.2,27.9,23.4,85,68,41,30.40,30.26,10,2,14,0.00
2013-1-7,53.0,41.6,28.1,35.8,29.3,19.4,78,62,50,30.33,30.07,13,2,18,0.00
2013-1-8,48.3,45.6,42.5,44.9,38.7,31.9,88,77,65,30.08,29.95,14,4,17,1.42
2013-1-9,56.5,52.6,47.5,52.9,49.1,44.1,92,88,87,30.13,29.89,20,7,33,0.95
2013-1-10,57.8,54.2,48.1,53.2,48.4,42.8,89,81,67,29.97,29.84,17,7,22,0.04
2013-1-11,69.5,58.5,47.2,58.7,48.5,41.3,83,70,48,29.90,29.71,27,8,32,0.00
2013-1-12,64.9,51.4,34.0,59.7,46.1,27.8,88,82,74,29.94,29.64,27,9,30,0.16
2013-1-13,39.2,33.2,28.5,27.8,23.4,19.1,79,67,54,30.30,29.93,23,12,27,0.00
2013-1-14,42.5,33.1,26.3,25.5,20.8,17.2,72,61,47,30.37,30.21,14,6,19,0.00
2013-1-15,37.3,32.4,27.9,27.7,24.3,20.6,84,72,64,30.27,30.15,14,5,16,0.08
2013-1-16,47.8,34.3,23.6,27.7,22.5,17.1,77,63,40,30.29,30.14,7,1,12,0.00
2013-1-17,57.6,42.1,30.6,36.8,29.9,23.5,78,64,41,30.48,30.22,16,2,19,0.00
2013-1-18,60.5,45.6,31.1,38.4,32.8,23.8,78,62,41,30.49,30.22,13,2,18,0.00
2013-1-19,64.8,50.6,39.5,45.5,39.7,32.8,80,67,47,30.22,30.09,21,3,26,0.00
2013-1-20,67.3,52.2,39.3,47.8,41.6,34.5,85,69,46,30.19,30.03,14,1,15,0.00
2013-1-21,53.4,43.4,35.4,41.8,29.3,23.1,82,59,41,30.29,30.08,17,4,23,0.00
2013-1-22,62.9,47.6,33.3,45.6,35.8,22.2,79,64,52,30.29,30.15,12,2,15,0.00
2013-1-23,72.8,57.9,44.9,54.9,48.9,39.7,85,73,52,30.22,30.06,15,2,23,0.00
2013-1-24,74.3,61.4,50.0,58.5,53.0,45.6,87,75,56,30.12,29.98,11,2,15,0.00
2013-1-25,53.3,45.7,40.3,49.5,40.3,35.8,89,82,67,30.19,29.97,16,5,19,0.00
2013-1-26,50.3,46.3,43.1,45.9,42.0,37.2,88,85,78,30.20,30.07,10,1,13,0.00
2013-1-27,72.3,59.8,46.5,60.9,53.6,43.1,90,81,65,30.07,29.86,24,5,27,0.01
2013-1-28,76.5,71.1,66.5,64.7,62.4,60.8,83,75,64,29.94,29.75,23,8,32,0.00
2013-1-29,75.7,65.3,51.7,64.9,57.4,35.5,85,76,54,29.76,29.37,27,8,36,0.66
2013-1-30,52.1,44.9,36.9,38.3,31.3,26.1,77,60,44,30.11,29.61,27,10,31,0.00
2013-1-31,66.4,52.1,33.7,35.8,31.2,24.1,69,47,29,30.32,30.03,20,6,26,0.00
2013-2-1,56.7,41.5,26.5,36.7,27.0,16.0,68,57,44,30.39,30.13,13,2,19,0.00
2013-2-2,65.6,52.3,39.7,42.5,37.5,30.7,77,59,36,30.30,30.09,12,2,15,0.00
2013-2-3,67.4,50.8,34.4,42.3,34.5,28.4,81,57,31,30.29,29.92,11,1,16,0.00
2013-2-4,70.0,60.3,52.8,55.6,48.3,33.5,83,66,39,29.92,29.73,21,3,29,0.06
2013-2-5,58.7,55.7,51.8,55.4,52.0,48.3,89,88,83,29.98,29.83,7,1,10,0.00
2013-2-6,72.1,59.4,53.0,61.3,54.4,49.5,90,84,57,29.99,29.81,17,6,19,0.00
2013-2-7,76.8,62.4,50.1,58.8,52.0,42.3,88,71,35,30.07,29.73,25,9,31,0.00
2013-2-8,61.6,49.5,37.1,42.2,35.0,30.7,82,60,32,30.24,30.06,15,4,17,0.00
2013-2-9,54.3,48.2,45.5,50.5,41.6,34.5,88,78,61,30.10,29.69,19,7,22,0.00
2013-2-10,65.7,56.8,47.3,56.7,37.0,31.6,89,49,30,29.99,29.62,14,2,22,0.87
2013-2-11,55.9,48.6,43.5,37.2,33.2,29.8,73,56,44,30.15,29.98,11,1,17,0.00
2013-2-12,46.1,44.0,38.9,41.1,39.1,35.0,87,83,71,30.06,29.83,16,3,18,0.63
2013-2-13,54.6,43.1,37.7,40.4,35.8,33.0,86,76,56,30.13,29.98,14,3,17,0.00
2013-2-14,65.0,51.0,38.7,44.2,37.8,33.3,82,63,34,30.08,29.96,12,1,16,0.00
2013-2-15,50.3,44.0,31.3,37.5,29.4,22.5,78,57,37,30.36,30.09,19,8,25,0.00
2013-2-16,53.1,40.2,28.0,33.9,28.6,21.8,80,64,44,30.40,30.13,12,1,15,0.00
2013-2-17,70.1,54.3,37.9,45.0,35.5,28.8,73,52,28,30.14,29.83,20,5,31,0.00
2013-2-18,73.4,59.3,44.5,56.3,44.8,31.4,76,60,36,30.09,29.68,38,11,38,0.00
2013-2-19,59.0,48.4,36.0,31.4,29.0,26.2,72,49,31,30.31,30.09,12,2,15,0.00
2013-2-20,50.5,41.7,37.1,36.9,34.4,31.2,82,76,48,30.19,29.78,19,6,26,0.27
2013-2-21,61.7,47.1,38.0,46.6,37.8,31.3,85,71,42,29.91,29.57,24,5,29,0.19
2013-2-22,46.3,36.9,28.3,33.5,25.8,20.4,78,65,49,30.14,29.90,14,5,21,0.00
2013-2-23,51.0,44.5,38.9,33.5,30.9,28.4,70,59,49,30.07,29.91,4,0,7,0.00
2013-2-24,67.1,51.9,35.2,45.3,37.0,27.1,77,58,42,29.91,29.55,24,6,24,0.00
2013-2-25,56.2,48.5,37.1,48.3,38.5,31.5,82,69,51,29.61,29.40,24,8,31,0.03
2013-2-26,55.5,44.6,38.9,35.6,32.8,30.2,78,64,46,29.88,29.60,26,10,33,0.00
2013-2-27,54.8,43.1,32.8,32.6,28.4,23.7,81,58,33,30.20,29.86,26,8,27,0.00
2013-2-28,57.0,42.0,30.2,32.7,27.4,24.3,80,58,34,30.27,30.13,21,5,26,0.00
2013-3-1,51.5,39.3,28.5,35.1,28.3,22.5,80,66,50,30.29,30.17,21,3,25,0.00
2013-3-2,52.9,39.5,26.5,28.9,24.9,20.2,78,58,38,30.42,30.20,19,4,19,0.00
2013-3-3,69.7,53.5,36.3,41.7,32.7,24.8,66,47,31,30.19,29.71,21,6,30,0.00
2013-3-4,86.9,66.7,54.5,48.0,43.9,41.4,62,47,23,29.75,29.50,25,9,33,0.00
2013-3-5,54.8,47.1,34.3,41.5,27.3,21.7,68,48,30,30.36,29.76,35,13,35,0.00
2013-3-6,57.9,43.7,26.8,29.1,24.4,19.6,75,49,27,30.44,30.17,5,0,13,0.00
2013-3-7,69.4,55.0,39.6,39.0,31.4,24.7,57,42,27,30.20,30.05,20,5,25,0.00
2013-3-8,61.5,57.3,52.9,54.0,48.0,34.8,84,72,46,30.14,29.92,21,7,21,0.00
2013-3-9,67.4,61.4,55.7,61.3,55.8,51.8,87,82,77,29.92,29.60,21,8,26,1.49
2013-3-10,55.6,48.2,38.3,51.7,39.0,30.0,87,71,60,30.06,29.65,29,9,33,0.29
2013-3-11,57.8,43.3,31.3,38.2,29.3,26.4,83,60,33,30.10,29.97,14,3,19,0.00
2013-3-12,63.2,51.1,38.9,39.2,32.8,29.2,69,51,31,30.28,30.00,10,1,16,0.00
2013-3-13,65.3,52.0,37.3,41.1,36.2,30.7,79,57,37,30.43,30.28,10,2,12,0.00
2013-3-14,75.2,59.9,46.5,51.5,42.6,34.3,65,54,40,30.29,30.11,14,4,23,0.00
2013-3-15,79.4,66.6,56.2,55.4,49.9,46.3,77,57,35,30.11,29.80,23,7,27,0.00
2013-3-16,79.4,69.0,58.4,60.6,54.0,47.0,76,60,47,29.80,29.61,24,8,27,0.00
2013-3-17,69.7,63.0,51.5,60.2,52.8,44.1,80,70,55,29.73,29.62,18,4,22,0.00
2013-3-18,66.5,56.6,48.3,48.6,44.3,36.8,82,65,42,29.98,29.58,21,6,27,0.00
2013-3-19,64.4,54.9,43.7,40.1,36.5,32.1,68,51,36,30.10,29.93,16,3,21,0.00
2013-3-20,63.1,53.5,40.7,39.0,34.9,30.6,76,52,30,30.28,29.99,11,2,15,0.00
2013-3-21,67.8,57.6,49.3,53.2,41.2,31.6,64,55,46,29.99,29.52,21,10,33,0.00
2013-3-22,59.5,47.2,42.7,45.1,41.0,37.2,89,79,59,29.84,29.53,15,4,21,0.00
2013-3-23,49.6,47.2,45.0,45.0,43.1,41.0,87,86,84,29.84,29.63,22,2,25,0.60
2013-3-24,50.5,42.6,35.4,42.8,30.5,23.3,85,63,43,30.17,29.81,30,14,38,0.01
2013-3-25,50.5,39.1,28.3,26.3,22.6,20.2,75,54,33,30.38,30.17,23,7,27,0.00
2013-3-26,53.3,40.4,26.6,30.1,24.8,18.8,73,55,38,30.49,30.28,7,0,13,0.00
2013-3-27,68.6,53.2,36.9,44.2,34.8,25.4,65,51,37,30.28,30.03,20,4,28,0.00
2013-3-28,59.1,52.0,49.4,50.7,43.6,40.8,81,73,63,30.17,30.09,7,1,15,0.00
2013-3-30,74.6,69.1,60.2,64.3,60.9,55.3,84,76,67,29.98,29.82,13,3,20,0.80
2013-3-31,70.7,64.0,55.9,59.6,55.4,48.4,86,75,54,29.93,29.74,26,2,37,0.62
2013-4-1,74.9,63.3,48.9,54.7,50.1,43.9,85,64,45,30.03,29.90,10,1,13,0.00
2013-4-2,65.4,58.5,48.7,57.2,50.9,43.7,85,76,59,30.00,29.88,16,5,22,0.36
2013-4-3,50.6,46.6,42.8,45.6,41.6,37.4,89,83,77,30.12,29.92,18,3,21,0.30
2013-4-4,50.7,44.7,41.1,42.6,39.0,37.2,86,81,72,30.18,30.09,14,3,17,0.03
2013-4-5,67.0,50.4,36.8,50.0,41.8,32.7,86,74,51,30.22,29.97,10,0,11,0.00
2013-4-6,73.2,65.8,55.5,58.9,52.5,46.2,76,63,52,29.97,29.78,24,8,29,0.00
2013-4-7,71.0,65.8,60.5,61.4,58.2,54.6,82,77,71,29.84,29.66,19,8,25,0.00
2013-4-8,75.2,70.1,65.2,64.7,61.2,57.0,80,74,69,29.68,29.59,28,11,31,0.00
2013-4-9,77.9,73.0,67.2,66.1,63.7,60.3,83,73,63,29.64,29.55,19,9,32,0.00
2013-4-10,73.2,44.9,38.1,65.6,39.4,32.4,86,81,67,29.97,29.62,22,12,31,0.22
2013-4-11,58.5,46.2,37.4,42.3,35.1,29.1,81,66,50,29.97,29.78,19,3,21,0.00
2013-4-12,73.4,57.7,41.1,52.4,44.7,35.4,83,64,43,29.97,29.81,7,1,11,0.00
2013-4-13,76.1,64.4,52.6,54.6,49.1,44.1,74,59,40,29.96,29.72,14,4,19,0.00
2013-4-14,80.0,68.2,53.8,64.7,57.0,46.7,79,68,56,29.72,29.46,19,5,26,0.00
2013-4-15,85.7,75.4,67.2,68.3,65.2,62.5,86,72,53,29.67,29.52,22,6,26,0.00
2013-4-16,83.6,76.5,70.7,69.5,65.8,62.5,79,70,59,29.84,29.66,24,7,29,0.00
2013-4-17,82.6,76.3,72.6,69.9,67.5,65.9,86,75,63,29.81,29.53,26,10,32,0.00
2013-4-18,76.2,52.8,40.4,68.9,44.5,33.2,86,74,57,30.13,29.44,27,13,36,1.17
2013-4-19,61.7,47.6,35.6,40.7,33.7,29.4,80,61,36,30.24,30.10,17,3,22,0.00
2013-4-20,68.5,56.6,42.8,44.6,39.3,33.2,70,54,35,30.16,29.97,15,3,24,0.00
2013-4-21,68.4,57.1,46.9,52.5,45.7,38.9,79,66,54,30.18,30.02,15,2,18,0.00
2013-4-22,75.7,66.7,51.5,60.5,54.3,44.1,77,65,56,30.07,29.77,18,6,25,0.00
2013-4-23,67.9,53.6,40.1,58.8,47.8,35.0,85,81,69,30.17,29.72,17,8,23,0.02
2013-4-24,59.0,46.6,35.2,38.5,35.0,29.2,83,66,43,30.30,30.17,21,6,27,0.04
2013-4-25,70.9,56.8,39.5,49.0,40.8,31.1,74,56,39,30.31,30.08,13,2,16,0.00
2013-4-26,74.6,65.5,57.7,65.6,55.4,45.3,81,70,58,30.14,29.92,18,4,25,0.00
2013-4-27,73.5,66.1,57.8,64.6,57.2,51.3,83,74,60,30.06,29.91,13,2,19,0.00
2013-4-28,80.3,67.6,49.7,65.4,58.1,45.6,87,73,54,29.99,29.79,10,1,14,0.00
2013-4-29,84.2,73.3,63.2,66.5,61.1,56.8,83,68,41,29.84,29.71,16,4,24,0.00
2013-4-30,79.4,71.2,58.7,65.3,61.1,53.8,85,71,56,29.77,29.68,17,4,19,0.00
2013-5-1,82.0,71.4,62.5,67.9,62.2,58.1,87,74,53,29.91,29.72,14,3,16,0.00
2013-5-2,66.5,49.1,41.6,59.0,41.9,34.9,83,76,70,30.31,29.90,27,14,33,0.03
2013-5-3,64.0,50.1,35.5,39.0,34.1,30.3,82,58,32,30.29,29.99,28,9,31,0.00
2013-5-4,69.4,57.0,38.6,42.8,37.8,33.3,82,52,27,30.00,29.85,27,7,32,0.00
2013-5-5,65.5,54.0,42.7,48.9,42.7,35.8,78,66,53,30.12,29.99,18,3,22,0.00
2013-5-6,75.8,60.9,44.2,57.3,49.8,39.8,86,69,45,30.08,29.94,9,0,13,0.00
2013-5-7,81.1,68.6,55.0,58.6,53.9,48.6,80,61,40,30.02,29.87,13,1,14,0.00
2013-5-8,83.2,74.5,62.1,60.3,57.1,52.3,74,56,39,29.93,29.78,17,4,28,0.00
2013-5-9,73.4,69.4,64.9,65.1,61.7,57.8,86,77,63,29.90,29.77,14,2,22,0.02
2013-5-10,79.9,70.2,63.4,66.6,60.4,56.5,89,73,52,30.00,29.84,9,0,13,0.01
2013-5-11,78.9,67.1,53.7,56.9,52.8,49.2,86,63,36,30.13,29.98,21,4,25,0.00
2013-5-12,76.7,66.8,51.0,53.2,43.6,37.1,79,46,27,30.22,30.08,7,1,12,0.00
2013-5-13,85.8,72.2,55.2,56.7,49.7,40.7,67,46,34,30.16,30.02,15,4,23,0.00
2013-5-14,86.6,74.7,61.4,62.4,56.8,50.8,74,55,38,30.07,29.91,19,4,28,0.00
2013-5-15,78.7,71.2,61.9,67.5,63.7,57.0,85,77,65,29.95,29.67,23,7,37,0.86
2013-5-16,77.8,67.9,62.7,70.6,63.0,58.4,88,85,78,29.77,29.67,12,1,18,0.41
2013-5-17,87.5,77.9,67.6,75.1,70.7,63.9,89,79,64,29.79,29.70,16,2,18,0.00
2013-5-18,90.1,80.7,71.5,74.2,70.6,66.3,84,72,57,29.80,29.66,24,7,28,0.00
2013-5-19,88.1,80.8,71.0,72.3,68.3,63.2,80,67,57,29.74,29.57,30,11,37,0.00
2013-5-20,87.9,81.3,74.1,72.6,69.5,66.4,78,68,59,29.72,29.50,27,9,40,0.01
2013-5-21,79.1,70.0,59.5,69.6,63.9,54.6,88,81,68,29.81,29.62,28,3,41,0.76
2013-5-22,83.5,69.3,54.1,64.6,59.3,50.6,89,73,47,29.90,29.79,6,0,12,0.01
2013-5-23,84.6,74.9,67.3,71.5,66.9,59.9,87,77,61,30.02,29.81,12,3,20,0.00
2013-5-24,83.5,76.2,66.6,73.0,69.2,62.4,87,79,68,30.17,29.94,11,2,20,1.20
2013-5-25,82.1,71.7,66.2,71.2,65.7,62.1,88,82,65,30.14,29.95,31,2,38,0.80
2013-5-26,84.8,77.6,70.4,73.0,69.6,65.6,87,77,64,30.01,29.84,17,4,20,0.02
2013-5-27,84.2,77.6,71.3,70.6,68.2,65.3,84,73,61,29.90,29.71,25,7,31,0.00
2013-5-28,83.0,77.8,71.7,68.8,67.1,65.0,81,70,59,29.80,29.63,24,8,32,0.00
2013-5-29,82.3,76.4,73.3,71.7,68.7,64.4,84,77,70,29.75,29.61,23,8,32,0.42
2013-5-30,87.3,80.0,74.6,74.2,70.4,68.0,81,73,61,29.70,29.59,26,9,36,0.00
2013-5-31,88.3,82.1,76.8,74.9,72.0,69.7,81,72,62,29.74,29.57,25,9,30,0.00
2013-6-1,82.8,77.4,68.5,71.9,69.2,63.2,84,76,70,29.90,29.61,28,6,32,0.01
2013-6-2,79.3,70.6,59.8,63.1,57.2,53.1,86,65,42,30.03,29.89,15,2,20,0.00
2013-6-3,84.9,73.1,61.0,65.7,60.3,54.7,80,66,46,29.94,29.77,10,1,16,0.00
2013-6-4,88.4,77.2,68.8,72.7,66.8,61.8,85,71,55,29.96,29.72,20,4,22,0.09
2013-6-5,87.6,79.8,73.0,72.3,69.2,66.9,82,71,56,29.88,29.69,13,2,21,0.00
2013-6-6,78.2,71.8,66.2,70.3,65.4,61.2,87,81,70,29.89,29.74,21,1,28,0.71
2013-6-7,80.4,70.3,59.7,63.0,58.8,55.8,88,69,46,29.95,29.83,9,1,19,0.01
2013-6-8,85.5,74.0,61.6,65.8,60.5,55.2,83,64,47,29.88,29.72,13,2,17,0.00
2013-6-9,87.5,76.8,68.2,71.6,66.5,61.1,87,71,54,29.87,29.67,24,2,34,0.72
2013-6-10,94.0,81.6,68.0,73.0,68.2,62.9,86,66,41,29.88,29.81,13,2,23,0.00
2013-6-11,90.8,83.2,74.8,74.5,70.8,67.1,83,67,53,29.94,29.83,16,3,22,0.00
2013-6-12,91.8,83.4,76.1,74.1,71.4,68.9,83,68,52,29.97,29.84,17,3,28,0.00
2013-6-13,96.4,84.8,74.5,75.3,70.8,67.3,79,64,44,29.97,29.81,12,1,17,0.00
2013-6-14,93.8,84.9,74.9,74.1,71.1,68.8,83,65,48,29.91,29.81,11,0,15,0.00
2013-6-15,88.4,81.8,75.0,74.6,71.3,66.8,84,71,61,29.93,29.81,19,1,24,0.01
2013-6-16,93.9,83.1,73.0,75.9,71.4,68.2,86,69,52,29.93,29.78,13,1,16,0.00
2013-6-17,87.7,79.0,68.6,74.9,70.4,63.5,87,75,65,29.96,29.77,33,1,39,0.38
2013-6-18,82.7,76.0,71.1,70.4,68.1,66.0,86,77,62,29.95,29.82,13,0,14,0.34
2013-6-19,88.6,78.9,69.4,75.0,70.2,65.3,89,76,58,29.92,29.79,12,1,16,0.00
2013-6-20,92.2,83.4,75.4,73.8,70.9,68.5,86,68,47,29.95,29.84,18,2,22,0.00
2013-6-21,93.0,84.4,75.7,72.5,70.0,66.8,79,63,45,29.98,29.87,20,4,25,0.00
2013-6-22,92.8,84.3,74.7,73.6,69.9,67.0,80,63,48,29.95,29.79,19,5,24,0.00
2013-6-23,93.0,84.7,77.4,73.4,69.9,67.3,78,62,46,29.90,29.79,20,6,26,0.00
2013-6-24,92.7,84.2,75.7,72.4,69.5,67.2,76,63,45,29.95,29.80,22,6,27,0.00
2013-6-25,95.2,86.0,77.5,72.9,69.8,66.6,76,60,45,29.90,29.72,26,9,32,0.00
2013-6-26,95.7,86.1,77.5,75.6,70.5,65.8,74,60,50,29.87,29.75,19,6,25,0.00
2013-6-27,99.6,86.6,76.6,76.7,71.6,67.9,77,62,43,29.91,29.77,15,2,19,0.00
2013-6-28,99.1,86.6,75.5,74.8,69.9,66.2,77,59,41,29.86,29.75,18,2,21,0.00
2013-6-29,94.3,83.8,72.2,70.2,65.2,61.4,82,57,37,29.84,29.73,17,3,22,0.00
2013-6-30,87.9,78.9,69.5,65.0,60.6,56.8,78,55,40,29.89,29.76,19,3,28,0.00
2013-7-1,85.6,74.1,63.1,62.3,58.9,56.4,80,61,40,29.97,29.88,20,3,23,0.00
2013-7-2,86.0,70.4,60.2,60.1,56.3,53.1,81,64,34,30.03,29.96,15,2,18,0.00
2013-7-3,89.8,77.2,62.0,59.1,55.1,51.2,74,49,31,30.00,29.88,9,0,13,0.00
2013-7-4,92.9,80.4,67.8,64.5,60.2,54.6,73,52,32,29.94,29.82,13,4,19,0.00
2013-7-5,94.4,82.7,71.1,67.1,63.3,60.5,74,54,35,29.93,29.79,13,2,23,0.00
2013-7-6,94.2,81.9,71.5,69.4,64.3,60.5,69,56,39,29.87,29.78,15,3,22,0.00
2013-7-7,95.3,84.6,73.2,71.2,66.6,63.0,75,56,38,29.93,29.84,13,3,17,0.00
2013-7-8,95.4,84.4,75.1,73.7,70.7,66.7,82,65,46,30.01,29.89,14,4,18,0.00
2013-7-9,98.3,87.8,78.2,71.3,67.6,64.2,74,53,34,30.02,29.88,22,5,31,0.00
2013-7-10,100.3,90.2,82.1,74.0,70.4,66.0,69,53,39,29.96,29.81,14,3,19,0.00
2013-7-11,101.8,86.3,78.7,73.7,70.2,67.0,74,60,37,29.88,29.79,11,2,24,0.09
2013-7-12,99.1,85.6,74.0,73.0,70.4,68.2,85,63,41,29.90,29.80,13,2,17,0.00
2013-7-13,98.5,87.0,76.0,70.4,67.5,61.5,77,54,39,29.92,29.79,14,3,20,0.00
2013-7-14,79.9,72.9,69.0,67.8,64.3,59.6,86,76,54,29.98,29.82,9,0,15,0.42
2013-7-15,74.8,70.8,66.1,68.9,65.5,62.1,88,84,76,30.04,29.90,7,0,11,0.05
2013-7-16,90.1,77.0,71.6,73.5,69.7,65.6,88,79,53,30.12,30.01,17,1,27,0.08
2013-7-17,91.7,80.2,71.1,74.0,70.3,66.2,88,74,51,30.16,30.06,19,2,28,0.12
2013-7-18,94.2,82.1,72.4,73.0,70.3,67.6,86,69,47,30.12,29.93,12,1,15,0.12
2013-7-19,94.7,80.4,74.0,73.6,71.0,68.1,85,74,47,29.97,29.85,18,3,25,0.10
2013-7-20,92.6,80.9,72.3,74.0,70.5,67.8,86,72,48,29.91,29.77,13,1,19,0.00
2013-7-21,96.4,84.8,74.7,75.6,71.4,69.2,84,66,46,29.84,29.74,15,3,22,0.00
2013-7-22,97.4,86.0,77.5,75.7,72.5,70.0,84,66,43,29.88,29.76,19,5,26,0.00
2013-7-23,99.1,88.3,79.7,76.9,73.1,67.7,77,62,46,29.88,29.71,18,6,24,0.00
2013-7-24,93.9,81.9,72.4,73.1,69.2,66.2,86,67,45,30.01,29.76,21,2,26,0.08
2013-7-25,93.5,82.9,72.0,73.0,69.9,66.5,84,66,48,29.99,29.89,9,1,14,0.00
2013-7-26,93.5,81.6,75.0,76.1,72.3,69.4,87,74,55,29.95,29.77,22,4,26,0.47
2013-7-27,88.2,78.7,72.2,69.8,67.1,65.3,83,69,48,29.96,29.84,11,2,22,0.00
2013-7-28,91.2,80.5,69.8,70.1,67.8,64.7,85,67,48,29.93,29.80,14,3,18,0.00
2013-7-29,93.5,84.2,76.6,75.3,71.4,65.3,84,67,47,29.92,29.82,15,4,20,0.00
2013-7-30,98.1,87.4,77.6,73.8,70.1,65.0,75,57,44,29.99,29.85,20,5,29,0.00
2013-7-31,100.4,89.5,78.5,76.6,71.4,65.2,70,56,42,29.96,29.83,17,2,19,0.00
2013-8-1,99.0,89.7,79.8,76.6,74.4,70.0,81,62,44,29.93,29.80,13,1,14,0.00
2013-8-2,103.0,90.4,78.7,72.6,70.2,67.1,74,54,37,29.86,29.75,20,4,22,0.00
2013-8-3,100.2,90.3,80.5,72.2,69.2,63.7,67,51,32,29.93,29.81,16,4,19,0.00
2013-8-4,100.2,89.2,78.1,73.3,70.1,67.3,75,55,38,29.97,29.83,14,3,19,0.00
2013-8-5,102.3,91.3,82.5,72.6,70.1,65.2,68,52,35,29.90,29.73,17,3,22,0.00
2013-8-6,103.3,91.5,80.5,72.6,69.0,64.0,68,49,33,29.81,29.68,19,5,22,0.00
2013-8-7,105.1,92.5,82.0,73.7,69.6,65.4,65,49,33,29.79,29.65,20,6,27,0.00
2013-8-8,101.9,90.5,81.1,75.3,70.6,66.0,70,53,38,29.80,29.67,16,2,18,0.00
2013-8-9,102.2,88.8,80.8,72.4,68.4,65.0,74,53,31,29.88,29.73,17,2,20,0.00
2013-8-10,95.7,84.6,76.2,73.1,70.8,67.7,86,66,43,29.99,29.88,18,3,20,0.00
2013-8-11,101.2,86.9,73.5,73.2,69.6,66.9,82,59,37,29.99,29.87,6,0,14,0.00
2013-8-12,100.7,88.5,77.3,72.7,70.0,68.3,77,56,38,29.96,29.82,14,2,18,0.00
2013-8-13,96.9,86.8,78.7,73.4,70.3,67.6,72,59,45,29.92,29.81,18,3,21,0.00
2013-8-14,90.5,82.4,76.1,72.2,69.3,65.7,81,66,48,29.96,29.86,12,2,17,0.00
2013-8-15,89.6,78.3,69.4,66.0,62.5,58.2,73,59,44,30.01,29.88,13,3,19,0.00
2013-8-16,86.9,76.5,66.3,68.2,63.7,60.3,85,66,48,30.01,29.90,23,1,31,0.13
2013-8-17,88.8,76.2,62.6,62.9,60.1,56.6,83,60,41,30.05,29.91,11,1,16,0.00
2013-8-18,91.7,79.1,66.6,65.3,61.4,58.6,77,57,37,30.04,29.91,11,1,14,0.00
2013-8-20,96.1,87.2,71.7,66.7,62.7,58.2,68,46,31,29.97,29.87,13,2,21,0.00
2013-8-21,96.0,85.0,72.2,68.6,64.4,61.2,72,52,35,30.01,29.90,14,2,26,0.00
2013-8-22,98.4,88.0,75.1,71.3,67.7,64.1,73,53,38,30.00,29.84,12,1,19,0.00
2013-8-23,99.4,86.7,79.5,72.9,69.3,66.2,72,57,38,29.95,29.83,12,1,18,0.00
2013-8-24,99.6,88.1,76.6,72.1,68.4,65.9,73,54,35,29.99,29.88,10,2,16,0.00
2013-8-25,98.0,86.9,75.6,71.2,67.5,64.7,74,54,37,30.07,29.96,15,2,22,0.00
2013-8-26,96.3,83.8,73.6,69.8,65.9,61.2,77,57,36,30.09,29.97,14,3,22,0.00
2013-8-27,94.4,82.1,73.9,70.8,68.2,66.1,82,65,40,30.05,29.93,15,2,24,0.00
2013-8-28,98.3,84.9,72.2,70.5,66.8,63.8,80,57,36,30.03,29.90,11,1,17,0.00
2013-8-29,101.9,88.7,74.9,69.4,66.2,62.8,73,50,33,29.99,29.86,10,1,16,0.00
2013-8-30,103.0,90.6,76.5,69.8,66.1,63.2,67,46,32,29.92,29.77,7,1,15,0.00
2013-8-31,105.3,91.3,76.3,69.9,66.3,64.2,67,46,30,29.82,29.69,10,1,19,0.00
2013-9-1,105.4,90.7,81.4,71.4,67.9,64.4,69,49,31,29.78,29.66,21,2,33,0.16
2013-9-2,98.0,84.1,75.8,73.8,71.0,66.7,84,66,43,29.94,29.76,14,1,15,0.08
2013-9-3,98.4,85.1,72.5,69.0,63.1,54.8,73,50,28,29.92,29.80,10,1,16,0.00
2013-9-4,99.4,86.9,76.0,72.5,67.3,64.1,73,54,35,29.97,29.87,14,2,16,0.00
2013-9-5,99.0,86.8,74.8,71.2,64.4,59.9,62,49,34,30.03,29.92,14,2,15,0.00
2013-9-6,100.7,86.8,74.0,69.9,64.7,59.7,62,49,35,30.01,29.86,15,1,18,0.00
2013-9-7,99.1,87.7,76.4,70.9,66.3,63.1,70,51,34,29.95,29.82,12,2,19,0.00
2013-9-8,96.7,84.7,71.6,70.1,65.5,61.9,78,55,36,29.91,29.79,15,2,19,0.00
2013-9-9,95.4,84.9,72.5,70.3,66.0,63.3,78,55,40,29.92,29.83,17,3,24,0.00
2013-9-10,94.3,83.5,74.8,72.1,65.6,59.3,77,57,33,30.03,29.88,18,4,26,0.00
2013-9-11,96.7,83.7,72.5,70.3,66.1,59.3,73,57,40,30.06,29.91,14,2,27,0.00
2013-9-12,97.3,85.7,73.4,68.7,66.9,65.4,78,56,36,30.00,29.84,8,1,18,0.00
2013-9-13,96.8,89.0,75.1,70.9,68.1,65.8,73,51,39,29.89,29.76,13,2,19,0.00
2013-9-14,93.1,82.3,72.5,67.3,62.2,56.2,66,52,39,29.92,29.80,17,5,21,0.00
2013-9-15,94.8,83.4,72.1,71.2,63.4,55.7,57,52,43,29.96,29.87,13,3,16,0.00
2013-9-16,96.0,85.7,73.7,70.6,65.2,61.7,67,51,38,30.02,29.88,8,1,11,0.00
2013-9-17,92.8,84.9,75.6,69.1,65.9,63.7,69,54,41,29.99,29.87,15,2,18,0.00
2013-9-18,95.4,85.2,77.7,70.6,66.8,62.5,69,56,39,29.94,29.79,15,4,23,0.00
2013-9-19,89.6,82.4,70.0,71.0,67.8,63.5,85,62,53,29.92,29.80,29,3,37,0.45
2013-9-20,74.6,71.7,67.5,68.9,66.9,59.4,89,85,75,29.88,29.80,13,3,19,1.19
2013-9-21,82.5,69.7,58.4,59.2,54.0,50.3,84,61,34,29.94,29.81,16,2,20,0.01
2013-9-22,82.7,69.0,56.1,57.3,52.7,48.7,78,58,37,29.89,29.74,9,1,14,0.00
2013-9-23,84.1,71.1,58.1,57.8,54.8,51.2,79,58,38,29.82,29.69,13,3,19,0.00
2013-9-24,92.9,76.5,63.8,65.9,56.9,50.7,79,55,26,29.87,29.76,14,2,21,0.00
2013-9-25,93.5,75.4,55.9,58.6,53.9,49.4,80,52,28,29.84,29.71,7,0,12,0.00
2013-9-26,93.4,79.8,67.1,64.5,58.6,53.9,64,50,33,29.81,29.71,17,4,22,0.00
2013-9-27,88.1,78.4,67.0,71.0,65.6,59.0,76,65,53,29.86,29.77,21,6,25,0.01
2013-9-28,82.6,74.4,65.3,73.8,67.5,59.4,87,80,67,29.99,29.78,17,6,22,1.16
2013-9-29,80.5,69.0,59.0,59.5,56.0,48.7,87,66,35,30.00,29.85,11,1,15,0.00
2013-9-30,85.4,70.8,55.8,61.9,55.9,50.5,84,62,36,29.87,29.75,9,0,12,0.00
2013-10-1,87.9,76.8,68.3,70.3,66.2,61.5,89,72,46,29.88,29.77,14,2,21,0.00
2013-10-2,87.5,78.7,72.8,71.6,69.2,66.7,86,74,57,29.92,29.78,14,2,19,0.00
2013-10-3,89.1,80.5,73.6,72.3,69.5,67.0,82,70,52,29.85,29.71,14,5,24,0.00
2013-10-4,88.1,80.2,73.9,70.5,68.7,67.0,84,69,52,29.84,29.74,20,6,28,0.00
2013-10-5,79.3,62.4,51.1,68.3,54.4,44.1,86,76,62,30.07,29.78,21,6,26,0.34
2013-10-6,73.1,58.4,45.9,49.0,43.3,38.6,92,62,29,30.09,29.97,15,3,19,0.02
2013-10-7,79.3,62.5,45.5,49.9,42.7,39.4,83,53,25,30.11,30.01,6,0,12,0.00
2013-10-8,78.7,65.6,52.5,52.8,48.0,41.8,73,54,36,30.07,29.94,10,2,16,0.00
2013-10-9,80.9,67.6,55.7,57.7,53.7,49.8,81,63,43,30.02,29.92,14,2,16,0.00
2013-10-10,81.5,70.1,58.9,63.3,57.6,53.6,84,66,47,30.00,29.81,16,4,20,0.00
2013-10-11,83.1,75.3,67.3,69.7,65.9,58.8,84,73,62,29.86,29.74,21,4,24,0.00
2013-10-12,91.1,78.3,68.5,73.9,68.7,61.4,82,73,50,30.01,29.80,15,1,19,0.00
2013-10-13,75.6,71.3,66.7,68.1,65.3,62.2,87,82,74,30.15,30.00,11,1,15,0.00
2013-10-14,72.5,70.1,68.0,68.6,65.8,63.1,89,87,79,30.08,29.86,14,2,18,0.77
2013-10-15,74.9,64.7,53.9,69.8,60.3,49.8,87,86,80,30.03,29.83,18,6,23,0.51
2013-10-16,64.0,57.3,53.4,51.2,48.2,45.0,87,73,55,30.07,29.96,14,7,22,0.12
2013-10-17,69.7,56.3,43.4,51.4,45.7,38.8,85,69,47,30.09,29.94,8,0,11,0.00
2013-10-18,67.5,59.4,49.2,54.9,50.2,43.6,83,72,55,30.07,29.86,19,4,25,0.01
2013-10-19,67.2,51.5,39.2,43.8,39.4,34.4,84,66,38,30.19,30.03,20,5,23,0.00
2013-10-20,71.1,56.5,43.2,47.2,42.5,37.7,82,62,37,30.04,29.81,14,2,21,0.00
2013-10-21,69.3,57.6,47.4,58.4,49.6,41.2,81,75,65,30.07,29.85,18,4,19,0.00
2013-10-22,75.6,56.0,38.0,49.3,43.4,33.8,86,66,38,30.13,29.97,9,1,16,0.00
2013-10-23,81.4,63.8,47.2,54.0,48.4,41.6,83,60,34,30.08,29.97,8,0,12,0.00
2013-10-24,72.6,61.6,49.1,53.1,47.4,39.7,82,61,46,30.25,29.98,16,2,28,0.00
2013-10-25,66.6,55.6,47.8,46.3,41.7,37.5,76,61,46,30.38,30.20,12,2,18,0.00
2013-10-26,73.4,60.1,52.1,62.2,52.6,43.5,88,77,62,30.20,29.97,17,2,23,1.76
2013-10-27,62.8,59.9,58.0,57.1,55.5,54.0,89,86,80,30.08,29.97,3,0,6,0.00
2013-10-28,74.2,64.9,55.4,66.4,59.9,51.9,90,84,75,30.06,29.94,13,2,16,0.01
2013-10-29,75.1,71.9,68.6,68.1,66.1,63.5,85,82,78,30.01,29.92,16,4,26,0.00
2013-10-30,72.4,68.8,65.3,67.0,64.2,60.9,88,86,82,29.94,29.71,20,6,27,0.61
2013-10-31,70.0,65.6,53.6,65.7,55.0,45.3,90,71,43,29.82,29.60,22,5,29,0.01
2013-11-1,73.4,60.5,48.0,51.0,46.9,42.9,84,63,43,30.04,29.78,10,1,15,0.00
2013-11-2,65.4,53.7,44.2,43.7,39.5,37.1,81,61,37,30.26,30.04,19,3,22,0.00
2013-11-3,64.8,54.7,43.7,46.4,41.0,35.6,76,61,44,30.17,29.96,15,3,22,0.00
2013-11-4,60.0,57.7,55.2,55.8,51.2,45.9,88,80,67,30.04,29.94,17,4,19,0.49
2013-11-5,68.9,64.3,59.3,64.6,60.2,55.7,88,87,82,30.01,29.86,15,4,24,0.31
2013-11-6,69.2,53.0,40.9,64.8,45.9,35.5,86,77,57,30.35,29.88,21,8,27,0.55
2013-11-7,62.5,48.5,35.3,44.3,38.4,31.2,86,70,42,30.48,30.34,7,0,11,0.01
2013-11-8,65.0,54.1,43.0,46.6,42.2,37.8,83,66,43,30.34,30.08,12,1,16,0.00
2013-11-9,67.2,58.8,53.5,53.5,48.3,44.7,77,68,60,30.18,30.06,13,3,18,0.00
2013-11-10,65.7,56.7,50.1,49.9,47.1,44.1,82,71,52,30.31,30.18,3,0,6,0.00
2013-11-11,72.3,58.6,46.8,55.7,49.5,42.2,85,73,55,30.23,30.12,9,1,11,0.00
2013-11-12,60.7,45.4,32.8,55.1,32.3,20.7,83,62,36,30.68,30.23,27,11,30,0.00
2013-11-13,51.4,37.8,25.9,29.3,24.6,19.3,79,60,41,30.68,30.34,5,0,11,0.00
2013-11-14,56.7,46.3,32.7,43.4,32.0,23.4,73,59,37,30.34,29.96,11,2,15,0.00
2013-11-15,69.7,59.0,49.3,57.0,50.4,43.5,84,74,54,29.97,29.78,17,3,19,0.00
2013-11-16,74.4,68.9,61.4,67.3,61.6,56.2,84,78,69,29.81,29.59,23,6,29,0.00
2013-11-17,82.1,72.5,61.5,67.5,56.0,36.3,84,59,33,29.96,29.61,18,4,27,0.01
2013-11-18,70.5,60.0,50.7,39.6,35.0,30.0,54,40,27,30.15,29.97,12,2,17,0.00
2013-11-19,65.0,58.0,53.0,40.0,36.6,34.0,54,45,33,30.15,29.97,15,4,18,0.00
2013-11-20,63.3,56.5,46.6,52.1,42.0,32.9,72,58,48,29.98,29.83,16,4,17,0.00
2013-11-21,73.4,65.0,50.3,66.4,59.1,45.3,85,81,71,30.05,29.89,29,2,36,0.18
2013-11-22,35.5,34.6,34.0,31.1,30.4,29.7,86,85,81,30.45,30.35,25,14,27,0.70
2013-11-23,42.0,37.4,34.5,33.9,30.6,24.4,87,77,61,30.54,30.43,22,11,24,0.01
2013-11-24,34.9,32.1,30.7,26.7,24.0,19.6,80,72,62,30.59,30.34,14,5,17,0.07
2013-11-25,36.5,34.6,32.1,32.1,30.2,26.6,85,84,80,30.35,30.15,13,3,16,0.01
2013-11-26,50.1,40.6,35.0,35.4,31.0,23.9,85,70,49,30.36,30.12,28,12,30,0.01
2013-11-27,43.5,33.9,26.4,25.7,20.6,16.6,70,59,39,30.45,30.32,17,4,18,0.00
2013-11-28,52.3,38.7,27.9,31.0,25.8,20.2,74,61,39,30.43,30.32,12,1,15,0.00
2013-11-29,56.9,43.7,31.5,39.0,32.6,25.3,80,66,46,30.49,30.30,9,1,13,0.00
2013-11-30,65.5,52.1,38.5,52.1,43.6,32.2,82,73,61,30.31,30.09,15,3,21,0.00
2013-12-1,65.1,58.0,49.2,56.8,52.0,44.5,84,81,73,30.10,29.85,14,3,18,0.00
2013-12-2,68.1,50.7,37.1,56.4,44.0,33.3,87,79,56,29.85,29.62,9,1,12,0.01
2013-12-3,71.3,55.2,42.7,53.9,44.1,39.1,87,69,39,29.63,29.46,10,1,11,0.01
2013-12-4,71.4,58.9,41.8,50.0,44.0,31.4,70,58,43,29.87,29.50,20,4,25,0.00
2013-12-5,41.5,32.6,27.8,31.3,23.4,19.5,85,69,59,30.18,29.87,23,14,30,0.00
2013-12-6,29.7,25.3,22.2,25.6,19.9,14.5,85,80,72,30.52,30.11,17,10,19,0.00
2013-12-7,25.4,22.0,17.8,18.5,14.7,9.7,78,73,70,30.56,30.26,13,7,16,0.00
2013-12-8,32.0,28.5,25.1,27.3,23.6,18.6,84,82,76,30.26,30.03,9,0,11,0.02
2013-12-9,32.3,30.7,26.9,27.0,23.7,17.4,84,75,67,30.41,30.14,15,6,22,0.07
2013-12-10,35.2,25.3,16.5,23.5,16.6,10.0,80,69,55,30.52,30.33,11,2,13,0.26
2013-12-11,39.3,31.4,24.4,28.4,24.2,19.4,82,75,63,30.59,30.30,9,0,13,0.27
2013-12-12,43.9,32.7,21.8,31.5,25.1,16.8,82,74,60,30.61,30.27,5,0,5,0.20
2013-12-13,45.0,40.1,37.3,41.3,34.4,30.1,87,80,73,30.27,29.76,11,2,15,0.05
2013-12-14,44.5,38.1,29.6,40.7,33.0,23.8,92,82,69,30.31,29.76,23,5,28,0.00
2013-12-15,58.8,40.7,25.9,39.6,30.9,21.4,84,70,44,30.32,30.18,4,0,9,0.00
2013-12-16,62.6,48.3,38.8,41.9,36.1,30.8,75,64,46,30.20,30.10,7,1,10,0.00
2013-12-17,70.9,50.3,33.9,48.3,38.2,28.3,81,65,42,30.26,30.14,5,0,6,0.00
2013-12-18,67.5,54.1,40.2,47.6,41.0,32.2,79,62,42,30.22,29.93,17,4,21,0.00
2013-12-19,69.2,61.2,53.3,59.7,53.2,45.9,82,75,67,29.92,29.68,28,7,39,0.01
2013-12-20,66.6,51.5,34.1,60.9,46.4,30.3,86,83,76,29.83,29.68,21,7,26,0.04
2013-12-21,50.7,41.3,33.8,46.9,37.6,30.0,87,87,86,29.78,29.48,18,2,22,1.35
2013-12-22,40.5,34.7,28.3,36.5,28.3,22.9,92,78,64,30.39,29.77,22,8,23,0.01
2013-12-23,43.7,32.5,26.8,31.5,25.6,22.0,82,76,60,30.56,30.37,3,0,13,0.00
2013-12-24,49.7,35.7,23.7,35.1,27.7,19.3,83,73,54,30.55,30.23,12,3,18,0.00
2013-12-25,50.9,40.8,32.6,40.9,32.8,27.7,82,74,58,30.40,30.22,9,2,14,0.00
2013-12-26,53.4,37.6,24.9,39.6,30.3,20.7,86,76,51,30.44,30.30,6,0,7,0.00
2013-12-27,57.3,42.3,28.9,41.2,32.7,24.6,85,71,45,30.42,30.29,6,0,10,0.01
2013-12-28,60.0,47.8,37.0,43.8,38.0,31.6,83,70,50,30.29,29.92,13,3,16,0.00
2013-12-29,48.6,37.7,29.9,40.6,30.0,21.3,84,73,68,30.28,29.89,23,7,26,0.00
2013-12-30,30.1,28.3,24.7,21.5,18.8,15.6,71,67,64,30.29,30.25,14,8,15,0.00
2013-12-31,52.5,42.6,23.4,31.4,28.3,17.2,78,58,42,30.43,30.16,7,1,14,0.00
2014-1-1,64.9,45.5,30.2,47.2,34.1,21.9,84,65,51,30.19,29.81,27,8,31,0.00
2014-1-2,39.8,29.6,22.2,21.7,18.3,14.8,74,63,46,30.48,30.19,22,9,26,0.00